UAE87 OMDB-LSZH
Flight info
| Callsign | UAE87 |
|---|---|
| Flight time | N/A |
| Altitude | 35000 |
| Route | ANVIX L223 TARDI N629 BOTAM Y855 LAKLU/N0492F360 Q204 NALKI G652 TOKRA DCT ALROK DCT BOSOB DCT ITRUX Y511 PMA Z712 SIGRO/N0491F380 Z712 WEJ L677 CVO L617 TANSA UL613 XANIS DCT DIMIS DCT VRANA DCT ELTIB DCT NEMEK DCT ADOMO DCT GIMIX DCT ERKIR DCT KPT L856 NEGRA |
| Aircraft | B77W/H-SDE1E2E3FGHIJ2J3J4J5M1RWXY/LB1D1 |
Departure
| Time | N/A |
|---|---|
| Airport | Dubai International Airport (OMDB) |
Arrival
| Time | 2026-04-26 16:33 |
|---|---|
| Airport | Zürich Airport (LSZH) |
| Time | Latitude | Longitude | Altitude | Speed | Heading |
|---|---|---|---|---|---|
| 2026-04-26 13:02 | 30.80725 | 30.61447 | 36416 ft | 432 kts | 308° |
| 2026-04-26 13:03 | 30.82912 | 30.59052 | 36587 ft | 434 kts | 308° |
| 2026-04-26 13:03 | 30.85102 | 30.56654 | 36733 ft | 436 kts | 308° |
| 2026-04-26 13:03 | 30.87302 | 30.54241 | 37043 ft | 438 kts | 308° |
| 2026-04-26 13:03 | 30.89519 | 30.51814 | 37604 ft | 434 kts | 308° |
| 2026-04-26 13:04 | 30.91703 | 30.49417 | 37930 ft | 435 kts | 308° |
| 2026-04-26 13:04 | 30.93897 | 30.47009 | 37900 ft | 431 kts | 308° |
| 2026-04-26 13:04 | 30.96060 | 30.44634 | 37741 ft | 429 kts | 308° |
| 2026-04-26 13:04 | 30.98233 | 30.42247 | 37574 ft | 423 kts | 308° |
| 2026-04-26 13:05 | 31.00343 | 30.39927 | 37090 ft | 421 kts | 308° |
| 2026-04-26 13:05 | 31.02499 | 30.37551 | 36349 ft | 425 kts | 308° |
| 2026-04-26 13:05 | 31.04634 | 30.35197 | 35998 ft | 425 kts | 309° |
| 2026-04-26 13:05 | 31.06741 | 30.32772 | 35945 ft | 429 kts | 303° |
| 2026-04-26 13:06 | 31.09862 | 30.27021 | 35952 ft | 413 kts | 287° |
| 2026-04-26 13:06 | 31.11716 | 30.20734 | 35943 ft | 412 kts | 284° |
| 2026-04-26 13:07 | 31.13486 | 30.14358 | 35950 ft | 412 kts | 284° |
| 2026-04-26 13:07 | 31.15224 | 30.08029 | 35953 ft | 411 kts | 284° |
| 2026-04-26 13:08 | 31.16965 | 30.01644 | 35955 ft | 413 kts | 283° |
| 2026-04-26 13:08 | 31.18883 | 29.95341 | 35959 ft | 418 kts | 292° |
| 2026-04-26 13:09 | 31.22134 | 29.89641 | 35960 ft | 424 kts | 300° |
| 2026-04-26 13:09 | 31.25619 | 29.84076 | 35954 ft | 426 kts | 300° |
| 2026-04-26 13:10 | 31.29118 | 29.78476 | 35961 ft | 424 kts | 300° |
| 2026-04-26 13:10 | 31.32594 | 29.72901 | 35952 ft | 424 kts | 300° |
| 2026-04-26 13:11 | 31.36075 | 29.67306 | 35947 ft | 426 kts | 300° |
| 2026-04-26 13:11 | 31.39546 | 29.61719 | 35944 ft | 426 kts | 300° |
| 2026-04-26 13:12 | 31.43041 | 29.56085 | 35936 ft | 427 kts | 300° |
| 2026-04-26 13:12 | 31.46511 | 29.50483 | 35935 ft | 424 kts | 300° |
| 2026-04-26 13:13 | 31.49984 | 29.44867 | 35936 ft | 427 kts | 300° |
| 2026-04-26 13:13 | 31.53435 | 29.39279 | 35934 ft | 425 kts | 301° |
| 2026-04-26 13:14 | 31.56912 | 29.33639 | 35948 ft | 428 kts | 300° |
| 2026-04-26 13:14 | 31.60389 | 29.27988 | 35956 ft | 427 kts | 300° |
| 2026-04-26 13:15 | 31.63840 | 29.22357 | 35951 ft | 426 kts | 300° |
| 2026-04-26 13:15 | 31.67310 | 29.16688 | 35959 ft | 427 kts | 301° |
| 2026-04-26 13:16 | 31.70772 | 29.11025 | 35949 ft | 428 kts | 301° |
| 2026-04-26 13:16 | 31.74673 | 29.05714 | 35940 ft | 438 kts | 313° |
| 2026-04-26 13:17 | 31.79429 | 29.01101 | 36292 ft | 447 kts | 314° |
| 2026-04-26 13:17 | 31.81816 | 28.98810 | 36975 ft | 442 kts | 314° |
| 2026-04-26 13:18 | 31.86526 | 28.94278 | 37943 ft | 439 kts | 314° |
| 2026-04-26 13:18 | 31.88879 | 28.92007 | 37948 ft | 441 kts | 314° |
| 2026-04-26 13:19 | 31.95969 | 28.85161 | 37957 ft | 439 kts | 314° |
| 2026-04-26 13:19 | 32.00707 | 28.80575 | 37950 ft | 441 kts | 314° |
| 2026-04-26 13:20 | 32.05446 | 28.75984 | 37943 ft | 441 kts | 314° |
| 2026-04-26 13:20 | 32.10169 | 28.71401 | 37936 ft | 442 kts | 315° |
| 2026-04-26 13:21 | 32.14904 | 28.66800 | 37943 ft | 439 kts | 314° |
| 2026-04-26 13:21 | 32.19649 | 28.62182 | 37933 ft | 443 kts | 315° |
| 2026-04-26 13:22 | 32.24408 | 28.57544 | 37939 ft | 442 kts | 315° |
| 2026-04-26 13:22 | 32.29132 | 28.52935 | 37936 ft | 442 kts | 315° |
| 2026-04-26 13:23 | 32.33889 | 28.48285 | 37925 ft | 445 kts | 315° |
| 2026-04-26 13:23 | 32.38649 | 28.43628 | 37937 ft | 443 kts | 315° |
| 2026-04-26 13:24 | 32.43418 | 28.38954 | 37927 ft | 443 kts | 315° |
| 2026-04-26 13:24 | 32.48191 | 28.34270 | 37932 ft | 445 kts | 315° |
| 2026-04-26 13:25 | 32.52941 | 28.29602 | 37931 ft | 445 kts | 315° |
| 2026-04-26 13:25 | 32.57689 | 28.24929 | 37937 ft | 444 kts | 315° |
| 2026-04-26 13:26 | 32.62455 | 28.20231 | 37933 ft | 447 kts | 315° |
| 2026-04-26 13:26 | 32.67207 | 28.15542 | 37927 ft | 447 kts | 315° |
| 2026-04-26 13:27 | 32.71968 | 28.10836 | 37933 ft | 447 kts | 316° |
| 2026-04-26 13:27 | 32.76748 | 28.06105 | 37919 ft | 445 kts | 315° |
| 2026-04-26 13:28 | 32.81559 | 28.01335 | 37924 ft | 449 kts | 316° |
| 2026-04-26 13:28 | 32.86336 | 27.96593 | 37921 ft | 448 kts | 315° |
| 2026-04-26 13:29 | 32.91125 | 27.91833 | 37916 ft | 447 kts | 316° |
| 2026-04-26 13:29 | 32.95908 | 27.87071 | 37908 ft | 449 kts | 316° |
| 2026-04-26 13:30 | 33.00691 | 27.82302 | 37919 ft | 449 kts | 316° |
| 2026-04-26 13:30 | 33.05460 | 27.77540 | 37913 ft | 448 kts | 316° |
| 2026-04-26 13:31 | 33.10249 | 27.72751 | 37916 ft | 448 kts | 316° |
| 2026-04-26 13:31 | 33.15045 | 27.67948 | 37920 ft | 449 kts | 316° |
| 2026-04-26 13:32 | 33.19791 | 27.63189 | 37919 ft | 448 kts | 316° |
| 2026-04-26 13:32 | 33.24564 | 27.58394 | 37924 ft | 448 kts | 316° |
| 2026-04-26 13:33 | 33.29359 | 27.53571 | 37924 ft | 449 kts | 316° |
| 2026-04-26 13:33 | 33.34139 | 27.48756 | 37922 ft | 450 kts | 317° |
| 2026-04-26 13:34 | 33.38924 | 27.43928 | 37923 ft | 449 kts | 317° |
| 2026-04-26 13:34 | 33.43704 | 27.39098 | 37923 ft | 450 kts | 317° |
| 2026-04-26 13:35 | 33.48460 | 27.34286 | 37924 ft | 449 kts | 317° |
| 2026-04-26 13:35 | 33.53213 | 27.29469 | 37936 ft | 449 kts | 317° |
| 2026-04-26 13:36 | 33.57991 | 27.24620 | 37934 ft | 448 kts | 317° |
| 2026-04-26 13:36 | 33.62766 | 27.19766 | 37935 ft | 450 kts | 317° |
| 2026-04-26 13:37 | 33.67526 | 27.14920 | 37932 ft | 450 kts | 317° |
| 2026-04-26 13:37 | 33.72291 | 27.10063 | 37931 ft | 449 kts | 317° |
| 2026-04-26 13:38 | 33.77058 | 27.05195 | 37936 ft | 451 kts | 318° |
| 2026-04-26 13:38 | 33.81846 | 27.00298 | 37933 ft | 451 kts | 318° |
| 2026-04-26 13:39 | 33.86617 | 26.95413 | 37934 ft | 451 kts | 318° |
| 2026-04-26 13:39 | 33.91371 | 26.90536 | 37931 ft | 453 kts | 318° |
| 2026-04-26 13:40 | 33.96146 | 26.85631 | 37938 ft | 450 kts | 318° |
| 2026-04-26 13:40 | 34.00910 | 26.80743 | 37935 ft | 450 kts | 320° |
| 2026-04-26 13:41 | 34.05867 | 26.76153 | 37944 ft | 449 kts | 321° |
| 2026-04-26 13:41 | 34.10863 | 26.71552 | 37944 ft | 451 kts | 321° |
| 2026-04-26 13:42 | 34.15855 | 26.66931 | 37937 ft | 452 kts | 321° |
| 2026-04-26 13:42 | 34.20810 | 26.62328 | 37949 ft | 451 kts | 321° |
| 2026-04-26 13:43 | 34.25779 | 26.57699 | 37958 ft | 450 kts | 322° |
| 2026-04-26 13:43 | 34.30736 | 26.53072 | 37955 ft | 451 kts | 322° |
| 2026-04-26 13:44 | 34.35662 | 26.48466 | 37957 ft | 450 kts | 322° |
| 2026-04-26 13:44 | 34.40645 | 26.43798 | 37954 ft | 450 kts | 322° |
| 2026-04-26 13:45 | 34.45575 | 26.39173 | 37945 ft | 451 kts | 322° |
| 2026-04-26 13:45 | 34.50541 | 26.34507 | 37954 ft | 449 kts | 321° |
| 2026-04-26 13:46 | 34.55457 | 26.29881 | 37960 ft | 450 kts | 321° |
| 2026-04-26 13:46 | 34.60405 | 26.25216 | 37945 ft | 451 kts | 321° |
| 2026-04-26 13:47 | 34.65350 | 26.20549 | 37966 ft | 450 kts | 322° |
| 2026-04-26 13:47 | 34.70277 | 26.15890 | 37963 ft | 448 kts | 322° |
| 2026-04-26 13:48 | 34.75188 | 26.11239 | 37949 ft | 449 kts | 322° |
| 2026-04-26 13:48 | 34.80081 | 26.06598 | 37954 ft | 451 kts | 322° |
| 2026-04-26 13:49 | 34.85017 | 26.01909 | 37959 ft | 448 kts | 322° |
| 2026-04-26 13:49 | 34.89909 | 25.97256 | 37952 ft | 450 kts | 322° |
| 2026-04-26 13:50 | 34.94843 | 25.92554 | 37958 ft | 449 kts | 322° |
| 2026-04-26 13:50 | 34.99763 | 25.87859 | 37936 ft | 450 kts | 322° |
| 2026-04-26 13:51 | 35.04708 | 25.83132 | 37956 ft | 448 kts | 322° |
| 2026-04-26 13:51 | 35.09602 | 25.78446 | 37963 ft | 447 kts | 322° |
| 2026-04-26 13:52 | 35.14499 | 25.73730 | 37980 ft | 446 kts | 322° |
| 2026-04-26 13:52 | 35.19377 | 25.69019 | 37981 ft | 447 kts | 322° |
| 2026-04-26 13:53 | 35.24264 | 25.64305 | 37996 ft | 446 kts | 322° |
| 2026-04-26 13:53 | 35.29127 | 25.59623 | 38009 ft | 447 kts | 322° |
| 2026-04-26 13:54 | 35.33973 | 25.54949 | 37994 ft | 446 kts | 323° |
| 2026-04-26 13:54 | 35.38857 | 25.50231 | 38024 ft | 447 kts | 323° |
| 2026-04-26 13:55 | 35.45318 | 25.43978 | 38022 ft | 445 kts | 323° |
| 2026-04-26 13:56 | 35.53370 | 25.36166 | 37986 ft | 444 kts | 323° |
| 2026-04-26 13:56 | 35.58212 | 25.31458 | 38004 ft | 445 kts | 323° |
| 2026-04-26 13:57 | 35.63055 | 25.26741 | 38015 ft | 444 kts | 323° |
| 2026-04-26 13:57 | 35.67885 | 25.22030 | 38000 ft | 443 kts | 323° |
| 2026-04-26 13:58 | 35.72669 | 25.17356 | 37995 ft | 443 kts | 323° |
| 2026-04-26 13:58 | 35.77483 | 25.12646 | 38016 ft | 442 kts | 323° |
| 2026-04-26 13:59 | 35.82277 | 25.07947 | 38015 ft | 442 kts | 323° |
| 2026-04-26 13:59 | 35.87098 | 25.03216 | 38000 ft | 442 kts | 323° |
| 2026-04-26 14:00 | 35.96688 | 24.93779 | 38000 ft | 442 kts | 323° |
| 2026-04-26 14:01 | 36.01484 | 24.89049 | 38031 ft | 442 kts | 323° |
| 2026-04-26 14:01 | 36.06247 | 24.84343 | 38007 ft | 441 kts | 323° |
| 2026-04-26 14:02 | 36.11031 | 24.79607 | 38013 ft | 441 kts | 323° |
| 2026-04-26 14:02 | 36.15816 | 24.74863 | 38021 ft | 442 kts | 323° |
| 2026-04-26 14:03 | 36.20611 | 24.70099 | 38022 ft | 443 kts | 323° |
| 2026-04-26 14:03 | 36.25387 | 24.65348 | 38021 ft | 441 kts | 323° |
| 2026-04-26 14:04 | 36.30187 | 24.60564 | 38022 ft | 442 kts | 323° |
| 2026-04-26 14:04 | 36.34954 | 24.55807 | 38012 ft | 442 kts | 323° |
| 2026-04-26 14:05 | 36.39762 | 24.51000 | 38009 ft | 443 kts | 323° |
| 2026-04-26 14:05 | 36.44558 | 24.46198 | 38118 ft | 444 kts | 323° |
| 2026-04-26 14:06 | 36.49333 | 24.41408 | 38015 ft | 441 kts | 323° |
| 2026-04-26 14:06 | 36.54079 | 24.36640 | 38018 ft | 442 kts | 323° |
| 2026-04-26 14:07 | 36.58861 | 24.31828 | 38024 ft | 442 kts | 323° |
| 2026-04-26 14:07 | 36.63631 | 24.27020 | 38027 ft | 443 kts | 322° |
| 2026-04-26 14:08 | 36.68409 | 24.22196 | 38008 ft | 443 kts | 322° |
| 2026-04-26 14:08 | 36.73209 | 24.17343 | 38016 ft | 443 kts | 322° |
| 2026-04-26 14:09 | 36.77990 | 24.12499 | 38018 ft | 444 kts | 322° |
| 2026-04-26 14:09 | 36.82758 | 24.07662 | 38014 ft | 444 kts | 322° |
| 2026-04-26 14:10 | 36.87506 | 24.02835 | 38017 ft | 443 kts | 322° |
| 2026-04-26 14:10 | 36.92274 | 23.97982 | 38018 ft | 443 kts | 322° |
| 2026-04-26 14:11 | 36.99440 | 23.90682 | 38008 ft | 444 kts | 322° |
| 2026-04-26 14:11 | 37.04209 | 23.85813 | 38010 ft | 445 kts | 322° |
| 2026-04-26 14:12 | 37.08990 | 23.80924 | 38013 ft | 444 kts | 322° |
| 2026-04-26 14:12 | 37.13775 | 23.76022 | 38018 ft | 444 kts | 322° |
| 2026-04-26 14:13 | 37.20916 | 23.68690 | 38016 ft | 445 kts | 322° |
| 2026-04-26 14:14 | 37.25691 | 23.63779 | 38023 ft | 444 kts | 322° |
| 2026-04-26 14:14 | 37.30483 | 23.58841 | 38013 ft | 444 kts | 322° |
| 2026-04-26 14:15 | 37.35227 | 23.53944 | 38014 ft | 444 kts | 322° |
| 2026-04-26 14:15 | 37.39979 | 23.49030 | 38015 ft | 444 kts | 322° |
| 2026-04-26 14:16 | 37.44743 | 23.44096 | 38023 ft | 444 kts | 322° |
| 2026-04-26 14:16 | 37.49491 | 23.39170 | 38030 ft | 443 kts | 322° |
| 2026-04-26 14:17 | 37.54256 | 23.34218 | 38034 ft | 444 kts | 321° |
| 2026-04-26 14:17 | 37.59005 | 23.29274 | 38039 ft | 444 kts | 321° |
| 2026-04-26 14:18 | 37.63751 | 23.24324 | 38036 ft | 444 kts | 321° |
| 2026-04-26 14:18 | 37.68513 | 23.19350 | 38035 ft | 445 kts | 321° |
| 2026-04-26 14:19 | 37.73285 | 23.14355 | 38046 ft | 445 kts | 321° |
| 2026-04-26 14:19 | 37.78038 | 23.09374 | 38058 ft | 445 kts | 321° |
| 2026-04-26 14:20 | 37.82765 | 23.04410 | 38074 ft | 445 kts | 320° |
| 2026-04-26 14:20 | 37.87537 | 22.99391 | 38088 ft | 445 kts | 320° |
| 2026-04-26 14:21 | 37.92284 | 22.94388 | 38082 ft | 446 kts | 320° |
| 2026-04-26 14:21 | 37.96916 | 22.89188 | 38069 ft | 446 kts | 317° |
| 2026-04-26 14:22 | 38.01460 | 22.83864 | 38051 ft | 446 kts | 317° |
| 2026-04-26 14:22 | 38.06012 | 22.78543 | 38037 ft | 446 kts | 317° |
| 2026-04-26 14:23 | 38.10547 | 22.73242 | 38016 ft | 445 kts | 317° |
| 2026-04-26 14:23 | 38.15111 | 22.67922 | 38022 ft | 446 kts | 317° |
| 2026-04-26 14:24 | 38.19676 | 22.62612 | 38023 ft | 446 kts | 317° |
| 2026-04-26 14:24 | 38.24254 | 22.57278 | 38022 ft | 447 kts | 317° |
| 2026-04-26 14:25 | 38.28814 | 22.51955 | 38030 ft | 446 kts | 317° |
| 2026-04-26 14:25 | 38.33383 | 22.46614 | 38048 ft | 447 kts | 317° |
| 2026-04-26 14:26 | 38.37921 | 22.41298 | 38069 ft | 447 kts | 317° |
| 2026-04-26 14:26 | 38.42485 | 22.35942 | 38092 ft | 447 kts | 317° |
| 2026-04-26 14:27 | 38.47047 | 22.30580 | 38105 ft | 446 kts | 316° |
| 2026-04-26 14:27 | 38.51599 | 22.25218 | 38125 ft | 447 kts | 316° |
| 2026-04-26 14:28 | 38.56157 | 22.19841 | 38116 ft | 447 kts | 316° |
| 2026-04-26 14:28 | 38.60881 | 22.14663 | 38113 ft | 448 kts | 320° |
| 2026-04-26 14:29 | 38.65733 | 22.09719 | 38105 ft | 447 kts | 320° |
| 2026-04-26 14:29 | 38.70580 | 22.04740 | 38112 ft | 448 kts | 320° |
| 2026-04-26 14:30 | 38.75410 | 21.99752 | 38107 ft | 447 kts | 320° |
| 2026-04-26 14:30 | 38.80227 | 21.94758 | 38106 ft | 447 kts | 320° |
| 2026-04-26 14:31 | 38.85076 | 21.89718 | 38102 ft | 448 kts | 320° |
| 2026-04-26 14:31 | 38.89897 | 21.84695 | 38099 ft | 449 kts | 320° |
| 2026-04-26 14:32 | 38.94727 | 21.79653 | 38101 ft | 449 kts | 320° |
| 2026-04-26 14:32 | 38.99563 | 21.74594 | 38102 ft | 449 kts | 320° |
| 2026-04-26 14:33 | 39.04409 | 21.69515 | 38096 ft | 448 kts | 320° |
| 2026-04-26 14:33 | 39.09222 | 21.64462 | 38089 ft | 448 kts | 319° |
| 2026-04-26 14:34 | 39.14045 | 21.59388 | 38092 ft | 448 kts | 319° |
| 2026-04-26 14:34 | 39.18835 | 21.54339 | 38096 ft | 448 kts | 319° |
| 2026-04-26 14:35 | 39.23675 | 21.49230 | 38111 ft | 449 kts | 319° |
| 2026-04-26 14:35 | 39.28482 | 21.44145 | 38111 ft | 448 kts | 319° |
| 2026-04-26 14:36 | 39.33315 | 21.39024 | 38115 ft | 449 kts | 319° |
| 2026-04-26 14:36 | 39.38128 | 21.33914 | 38125 ft | 448 kts | 319° |
| 2026-04-26 14:37 | 39.42936 | 21.28800 | 38131 ft | 448 kts | 319° |
| 2026-04-26 14:37 | 39.47725 | 21.23698 | 38139 ft | 448 kts | 319° |
| 2026-04-26 14:38 | 39.52537 | 21.18561 | 38135 ft | 448 kts | 319° |
| 2026-04-26 14:38 | 39.57319 | 21.13446 | 38117 ft | 447 kts | 319° |
| 2026-04-26 14:39 | 39.62103 | 21.08321 | 38110 ft | 449 kts | 319° |
| 2026-04-26 14:39 | 39.66895 | 21.03176 | 38103 ft | 450 kts | 318° |
| 2026-04-26 14:40 | 39.71697 | 20.98012 | 38097 ft | 449 kts | 319° |
| 2026-04-26 14:40 | 39.76514 | 20.92821 | 38091 ft | 449 kts | 318° |
| 2026-04-26 14:41 | 39.81306 | 20.87648 | 38102 ft | 449 kts | 319° |
| 2026-04-26 14:41 | 39.86084 | 20.82480 | 38113 ft | 448 kts | 318° |
| 2026-04-26 14:42 | 39.90886 | 20.77277 | 38131 ft | 450 kts | 318° |
| 2026-04-26 14:42 | 39.95679 | 20.72075 | 38143 ft | 449 kts | 318° |
| 2026-04-26 14:43 | 40.00470 | 20.66863 | 38142 ft | 451 kts | 318° |
| 2026-04-26 14:43 | 40.05273 | 20.61630 | 38133 ft | 450 kts | 318° |
| 2026-04-26 14:44 | 40.10415 | 20.56964 | 38128 ft | 453 kts | 327° |
| 2026-04-26 14:44 | 40.15822 | 20.52780 | 38118 ft | 452 kts | 327° |
| 2026-04-26 14:45 | 40.21210 | 20.48598 | 38116 ft | 452 kts | 327° |
| 2026-04-26 14:45 | 40.26603 | 20.44395 | 38120 ft | 452 kts | 327° |
| 2026-04-26 14:46 | 40.31978 | 20.40196 | 38123 ft | 452 kts | 327° |
| 2026-04-26 14:46 | 40.37368 | 20.35975 | 38119 ft | 454 kts | 327° |
| 2026-04-26 14:47 | 40.42782 | 20.31726 | 38123 ft | 452 kts | 326° |
| 2026-04-26 14:47 | 40.48139 | 20.27513 | 38115 ft | 452 kts | 326° |
| 2026-04-26 14:48 | 40.53526 | 20.23269 | 38111 ft | 452 kts | 326° |
| 2026-04-26 14:48 | 40.58917 | 20.19013 | 38108 ft | 452 kts | 326° |
| 2026-04-26 14:49 | 40.64309 | 20.14749 | 38105 ft | 452 kts | 326° |
| 2026-04-26 14:49 | 40.69667 | 20.10503 | 38100 ft | 453 kts | 326° |
| 2026-04-26 14:50 | 40.75068 | 20.06215 | 38099 ft | 453 kts | 326° |
| 2026-04-26 14:50 | 40.80450 | 20.01934 | 38098 ft | 454 kts | 326° |
| 2026-04-26 14:51 | 40.85854 | 19.97627 | 38096 ft | 453 kts | 326° |
| 2026-04-26 14:51 | 40.91221 | 19.93341 | 38090 ft | 453 kts | 327° |
| 2026-04-26 14:52 | 40.96597 | 19.89041 | 38084 ft | 453 kts | 326° |
| 2026-04-26 14:52 | 41.01966 | 19.84736 | 38084 ft | 452 kts | 327° |
| 2026-04-26 14:53 | 41.07346 | 19.80416 | 38086 ft | 453 kts | 327° |
| 2026-04-26 14:53 | 41.12706 | 19.76102 | 38088 ft | 452 kts | 326° |
| 2026-04-26 14:54 | 41.18083 | 19.71767 | 38085 ft | 453 kts | 327° |
| 2026-04-26 14:54 | 41.23461 | 19.67422 | 38078 ft | 451 kts | 327° |
| 2026-04-26 14:55 | 41.28788 | 19.63111 | 38074 ft | 452 kts | 327° |
| 2026-04-26 14:55 | 41.34147 | 19.58765 | 38069 ft | 452 kts | 327° |
| 2026-04-26 14:56 | 41.39517 | 19.54401 | 38062 ft | 452 kts | 327° |
| 2026-04-26 14:56 | 41.44861 | 19.50051 | 38061 ft | 452 kts | 327° |
| 2026-04-26 14:57 | 41.50201 | 19.45695 | 38064 ft | 451 kts | 327° |
| 2026-04-26 14:57 | 41.55555 | 19.41318 | 38064 ft | 450 kts | 327° |
| 2026-04-26 14:58 | 41.60878 | 19.36959 | 38062 ft | 450 kts | 327° |
| 2026-04-26 14:58 | 41.66224 | 19.32572 | 38073 ft | 450 kts | 326° |
| 2026-04-26 14:59 | 41.71538 | 19.28203 | 38063 ft | 450 kts | 326° |
| 2026-04-26 14:59 | 41.76869 | 19.23811 | 38070 ft | 450 kts | 326° |
| 2026-04-26 15:00 | 41.82194 | 19.19415 | 38073 ft | 451 kts | 326° |
| 2026-04-26 15:00 | 41.87478 | 19.15046 | 38072 ft | 450 kts | 326° |
| 2026-04-26 15:01 | 41.92823 | 19.10616 | 38071 ft | 449 kts | 326° |
| 2026-04-26 15:01 | 41.98095 | 19.06239 | 38071 ft | 448 kts | 326° |
| 2026-04-26 15:02 | 42.03392 | 19.01832 | 38074 ft | 448 kts | 326° |
| 2026-04-26 15:02 | 42.08658 | 18.97442 | 38074 ft | 449 kts | 326° |
| 2026-04-26 15:03 | 42.13992 | 18.92986 | 38080 ft | 450 kts | 326° |
| 2026-04-26 15:03 | 42.19279 | 18.88562 | 38082 ft | 449 kts | 326° |
| 2026-04-26 15:04 | 42.24561 | 18.84132 | 38079 ft | 450 kts | 326° |
| 2026-04-26 15:04 | 42.29891 | 18.79653 | 38082 ft | 449 kts | 326° |
| 2026-04-26 15:05 | 42.35168 | 18.75210 | 38084 ft | 450 kts | 326° |
| 2026-04-26 15:05 | 42.40483 | 18.70725 | 38086 ft | 450 kts | 326° |
| 2026-04-26 15:06 | 42.45771 | 18.66255 | 38093 ft | 450 kts | 326° |
| 2026-04-26 15:06 | 42.51080 | 18.61757 | 38095 ft | 450 kts | 326° |
| 2026-04-26 15:07 | 42.58997 | 18.55034 | 38093 ft | 451 kts | 327° |
| 2026-04-26 15:07 | 42.64291 | 18.50526 | 38096 ft | 450 kts | 327° |
| 2026-04-26 15:08 | 42.69586 | 18.46009 | 38098 ft | 450 kts | 327° |
| 2026-04-26 15:08 | 42.74894 | 18.41471 | 38102 ft | 449 kts | 327° |
| 2026-04-26 15:09 | 42.80154 | 18.36965 | 38109 ft | 451 kts | 327° |
| 2026-04-26 15:09 | 42.85435 | 18.32431 | 38119 ft | 450 kts | 326° |
| 2026-04-26 15:10 | 42.89848 | 18.28636 | 38127 ft | 451 kts | 326° |
| 2026-04-26 15:10 | 42.96036 | 18.23304 | 38127 ft | 451 kts | 326° |
| 2026-04-26 15:11 | 43.01334 | 18.18728 | 38129 ft | 451 kts | 326° |
| 2026-04-26 15:11 | 43.06593 | 18.14176 | 38122 ft | 450 kts | 326° |
| 2026-04-26 15:12 | 43.11871 | 18.09598 | 38127 ft | 451 kts | 326° |
| 2026-04-26 15:12 | 43.17148 | 18.05012 | 38128 ft | 450 kts | 326° |
| 2026-04-26 15:13 | 43.22446 | 18.00398 | 38127 ft | 452 kts | 326° |
| 2026-04-26 15:13 | 43.27734 | 17.95783 | 38131 ft | 452 kts | 326° |
| 2026-04-26 15:14 | 43.33014 | 17.91165 | 38135 ft | 451 kts | 327° |
| 2026-04-26 15:14 | 43.38271 | 17.86558 | 38127 ft | 450 kts | 327° |
| 2026-04-26 15:15 | 43.43560 | 17.81913 | 38128 ft | 450 kts | 327° |
| 2026-04-26 15:15 | 43.48802 | 17.77300 | 38123 ft | 450 kts | 327° |
| 2026-04-26 15:16 | 43.54089 | 17.72638 | 38123 ft | 451 kts | 327° |
| 2026-04-26 15:16 | 43.59331 | 17.68005 | 38148 ft | 451 kts | 327° |
| 2026-04-26 15:17 | 43.63746 | 17.64096 | 38156 ft | 451 kts | 327° |
| 2026-04-26 15:17 | 43.69886 | 17.58648 | 38171 ft | 451 kts | 327° |
| 2026-04-26 15:18 | 43.75094 | 17.53848 | 38173 ft | 451 kts | 321° |
| 2026-04-26 15:18 | 43.79707 | 17.48086 | 38179 ft | 450 kts | 317° |
| 2026-04-26 15:19 | 43.84302 | 17.42150 | 38176 ft | 451 kts | 317° |
| 2026-04-26 15:19 | 43.88854 | 17.36243 | 38176 ft | 451 kts | 317° |
| 2026-04-26 15:20 | 43.93412 | 17.30306 | 38186 ft | 451 kts | 316° |
| 2026-04-26 15:20 | 43.97995 | 17.24321 | 38187 ft | 451 kts | 316° |
| 2026-04-26 15:21 | 44.02541 | 17.18368 | 38192 ft | 450 kts | 316° |
| 2026-04-26 15:21 | 44.07129 | 17.12346 | 38190 ft | 450 kts | 316° |
| 2026-04-26 15:22 | 44.11664 | 17.06379 | 38194 ft | 450 kts | 316° |
| 2026-04-26 15:22 | 44.16199 | 17.00398 | 38191 ft | 451 kts | 316° |
| 2026-04-26 15:23 | 44.20751 | 16.94384 | 38186 ft | 451 kts | 316° |
| 2026-04-26 15:23 | 44.25277 | 16.88389 | 38182 ft | 450 kts | 316° |
| 2026-04-26 15:24 | 44.29797 | 16.82389 | 38181 ft | 449 kts | 316° |
| 2026-04-26 15:24 | 44.34496 | 16.76684 | 38175 ft | 449 kts | 320° |
| 2026-04-26 15:25 | 44.38508 | 16.72085 | 38175 ft | 449 kts | 320° |
| 2026-04-26 15:25 | 44.44110 | 16.65606 | 38173 ft | 449 kts | 320° |
| 2026-04-26 15:26 | 44.48922 | 16.60006 | 38168 ft | 450 kts | 320° |
| 2026-04-26 15:26 | 44.53701 | 16.54422 | 38166 ft | 450 kts | 320° |
| 2026-04-26 15:27 | 44.58482 | 16.48818 | 38159 ft | 449 kts | 320° |
| 2026-04-26 15:27 | 44.63269 | 16.43192 | 38156 ft | 448 kts | 320° |
| 2026-04-26 15:28 | 44.68031 | 16.37582 | 38158 ft | 448 kts | 320° |
| 2026-04-26 15:28 | 44.72800 | 16.31950 | 38159 ft | 448 kts | 319° |
| 2026-04-26 15:29 | 44.77555 | 16.26322 | 38161 ft | 447 kts | 319° |
| 2026-04-26 15:30 | 44.87042 | 16.15055 | 38157 ft | 447 kts | 319° |
| 2026-04-26 15:30 | 44.91750 | 16.09444 | 38152 ft | 447 kts | 319° |
| 2026-04-26 15:31 | 44.98874 | 16.00931 | 38157 ft | 447 kts | 319° |
| 2026-04-26 15:32 | 45.05165 | 15.93389 | 38155 ft | 446 kts | 319° |
| 2026-04-26 15:32 | 45.10659 | 15.86785 | 38153 ft | 447 kts | 319° |
| 2026-04-26 15:33 | 45.15379 | 15.81098 | 38160 ft | 446 kts | 319° |
| 2026-04-26 15:33 | 45.20087 | 15.75411 | 38155 ft | 446 kts | 319° |
| 2026-04-26 15:34 | 45.24801 | 15.69705 | 38154 ft | 446 kts | 319° |
| 2026-04-26 15:34 | 45.29498 | 15.64006 | 38156 ft | 447 kts | 319° |
| 2026-04-26 15:35 | 45.34189 | 15.58302 | 38151 ft | 446 kts | 319° |
| 2026-04-26 15:35 | 45.38885 | 15.52577 | 38146 ft | 445 kts | 318° |
| 2026-04-26 15:36 | 45.43601 | 15.46818 | 38152 ft | 445 kts | 318° |
| 2026-04-26 15:36 | 45.48281 | 15.41088 | 38151 ft | 445 kts | 318° |
| 2026-04-26 15:37 | 45.52934 | 15.35378 | 38146 ft | 445 kts | 318° |
| 2026-04-26 15:37 | 45.57572 | 15.29507 | 38153 ft | 444 kts | 312° |
| 2026-04-26 15:38 | 45.61654 | 15.22967 | 38160 ft | 445 kts | 310° |
| 2026-04-26 15:38 | 45.65710 | 15.16349 | 38160 ft | 443 kts | 310° |
| 2026-04-26 15:39 | 45.67727 | 15.13050 | 37905 ft | 443 kts | 310° |
| 2026-04-26 15:39 | 45.69764 | 15.09714 | 38163 ft | 445 kts | 310° |
| 2026-04-26 15:39 | 45.73145 | 15.04168 | 38167 ft | 445 kts | 310° |
| 2026-04-26 15:40 | 45.77864 | 14.96408 | 38175 ft | 445 kts | 310° |
| 2026-04-26 15:40 | 45.81935 | 14.89695 | 38168 ft | 444 kts | 310° |
| 2026-04-26 15:41 | 45.85966 | 14.83031 | 38167 ft | 444 kts | 310° |
| 2026-04-26 15:41 | 45.89985 | 14.76372 | 38160 ft | 444 kts | 309° |
| 2026-04-26 15:42 | 45.94028 | 14.69655 | 38146 ft | 444 kts | 309° |
| 2026-04-26 15:42 | 45.98027 | 14.62999 | 38152 ft | 443 kts | 309° |
| 2026-04-26 15:43 | 46.02051 | 14.56312 | 38142 ft | 443 kts | 310° |
| 2026-04-26 15:44 | 46.08097 | 14.46236 | 38127 ft | 444 kts | 309° |
| 2026-04-26 15:44 | 46.14108 | 14.36178 | 38140 ft | 445 kts | 309° |
| 2026-04-26 15:45 | 46.20121 | 14.26082 | 38154 ft | 444 kts | 309° |
| 2026-04-26 15:46 | 46.26121 | 14.15969 | 38170 ft | 444 kts | 309° |
| 2026-04-26 15:46 | 46.29447 | 14.10347 | 38176 ft | 443 kts | 309° |
| 2026-04-26 15:47 | 46.36122 | 13.99030 | 38193 ft | 445 kts | 309° |
| 2026-04-26 15:48 | 46.40128 | 13.92215 | 38185 ft | 445 kts | 309° |
| 2026-04-26 15:48 | 46.44102 | 13.85438 | 38199 ft | 444 kts | 309° |
| 2026-04-26 15:49 | 46.48106 | 13.78595 | 38195 ft | 445 kts | 309° |
| 2026-04-26 15:49 | 46.52071 | 13.71799 | 38197 ft | 444 kts | 309° |
| 2026-04-26 15:50 | 46.56132 | 13.65101 | 38208 ft | 445 kts | 310° |
| 2026-04-26 15:50 | 46.60254 | 13.58393 | 38207 ft | 445 kts | 310° |
| 2026-04-26 15:51 | 46.64347 | 13.51701 | 38217 ft | 445 kts | 310° |
| 2026-04-26 15:51 | 46.68433 | 13.44997 | 38218 ft | 445 kts | 310° |
| 2026-04-26 15:52 | 46.72528 | 13.38257 | 38212 ft | 445 kts | 310° |
| 2026-04-26 15:52 | 46.76607 | 13.31527 | 38223 ft | 444 kts | 310° |
| 2026-04-26 15:53 | 46.80693 | 13.24767 | 38228 ft | 445 kts | 309° |
| 2026-04-26 15:53 | 46.84774 | 13.17997 | 38235 ft | 445 kts | 310° |
| 2026-04-26 15:54 | 46.88843 | 13.11230 | 38238 ft | 445 kts | 309° |
| 2026-04-26 15:54 | 46.92894 | 13.04477 | 38233 ft | 445 kts | 309° |
| 2026-04-26 15:55 | 46.96956 | 12.97688 | 38241 ft | 444 kts | 309° |
| 2026-04-26 15:55 | 47.00987 | 12.90933 | 38235 ft | 443 kts | 309° |
| 2026-04-26 15:56 | 47.05042 | 12.84122 | 38243 ft | 444 kts | 309° |
| 2026-04-26 15:56 | 47.09079 | 12.77324 | 38241 ft | 445 kts | 309° |
| 2026-04-26 15:57 | 47.13119 | 12.70504 | 38249 ft | 445 kts | 309° |
| 2026-04-26 15:57 | 47.17180 | 12.63632 | 38253 ft | 445 kts | 309° |
| 2026-04-26 15:58 | 47.21189 | 12.56830 | 38254 ft | 444 kts | 309° |
| 2026-04-26 15:58 | 47.25233 | 12.49950 | 38255 ft | 444 kts | 309° |
| 2026-04-26 15:59 | 47.29248 | 12.43102 | 38251 ft | 444 kts | 309° |
| 2026-04-26 15:59 | 47.33254 | 12.36254 | 38237 ft | 444 kts | 309° |
| 2026-04-26 16:00 | 47.37267 | 12.29374 | 38243 ft | 443 kts | 309° |
| 2026-04-26 16:00 | 47.41269 | 12.22498 | 38244 ft | 444 kts | 309° |
| 2026-04-26 16:01 | 47.45304 | 12.15546 | 38245 ft | 443 kts | 309° |
| 2026-04-26 16:01 | 47.49300 | 12.08643 | 38238 ft | 444 kts | 309° |
| 2026-04-26 16:02 | 47.52847 | 12.01240 | 38220 ft | 441 kts | 295° |
| 2026-04-26 16:02 | 47.54750 | 11.92722 | 38226 ft | 440 kts | 282° |
| 2026-04-26 16:03 | 47.55977 | 11.83862 | 38221 ft | 440 kts | 281° |
| 2026-04-26 16:03 | 47.57166 | 11.74992 | 38231 ft | 440 kts | 281° |
| 2026-04-26 16:04 | 47.58331 | 11.66155 | 38241 ft | 440 kts | 281° |
| 2026-04-26 16:04 | 47.59487 | 11.57276 | 38239 ft | 440 kts | 281° |
| 2026-04-26 16:05 | 47.60632 | 11.48397 | 38233 ft | 440 kts | 281° |
| 2026-04-26 16:05 | 47.61765 | 11.39546 | 38240 ft | 440 kts | 281° |
| 2026-04-26 16:06 | 47.62896 | 11.30640 | 38228 ft | 440 kts | 280° |
| 2026-04-26 16:06 | 47.64019 | 11.21737 | 38222 ft | 441 kts | 280° |
| 2026-04-26 16:07 | 47.65144 | 11.12763 | 38235 ft | 441 kts | 280° |
| 2026-04-26 16:07 | 47.66249 | 11.03888 | 38229 ft | 441 kts | 280° |
| 2026-04-26 16:08 | 47.67352 | 10.94972 | 38229 ft | 441 kts | 280° |
| 2026-04-26 16:08 | 47.68447 | 10.86053 | 38225 ft | 440 kts | 280° |
| 2026-04-26 16:09 | 47.69539 | 10.77103 | 38215 ft | 441 kts | 280° |
| 2026-04-26 16:09 | 47.70621 | 10.68173 | 38215 ft | 441 kts | 280° |
| 2026-04-26 16:10 | 47.71698 | 10.59223 | 38212 ft | 441 kts | 280° |
| 2026-04-26 16:10 | 47.72766 | 10.50283 | 38210 ft | 442 kts | 280° |
| 2026-04-26 16:11 | 47.73827 | 10.41339 | 37925 ft | 436 kts | 280° |
| 2026-04-26 16:11 | 47.74322 | 10.36954 | 37066 ft | 437 kts | 277° |
| 2026-04-26 16:11 | 47.74473 | 10.32406 | 36344 ft | 437 kts | 269° |
| 2026-04-26 16:11 | 47.74400 | 10.27931 | 35688 ft | 439 kts | 269° |
| 2026-04-26 16:12 | 47.74306 | 10.23405 | 34898 ft | 443 kts | 268° |
| 2026-04-26 16:12 | 47.74206 | 10.18822 | 33940 ft | 446 kts | 268° |
| 2026-04-26 16:12 | 47.73999 | 10.09683 | 32164 ft | 449 kts | 268° |
| 2026-04-26 16:13 | 47.73889 | 10.05046 | 31275 ft | 450 kts | 268° |
| 2026-04-26 16:13 | 47.73779 | 10.00472 | 30594 ft | 446 kts | 268° |
| 2026-04-26 16:13 | 47.73667 | 9.95888 | 30129 ft | 438 kts | 268° |
| 2026-04-26 16:13 | 47.73557 | 9.91457 | 29618 ft | 431 kts | 268° |
| 2026-04-26 16:14 | 47.73445 | 9.87043 | 29066 ft | 426 kts | 268° |
| 2026-04-26 16:14 | 47.73333 | 9.82669 | 28510 ft | 424 kts | 268° |
| 2026-04-26 16:14 | 47.73100 | 9.73763 | 27362 ft | 438 kts | 268° |
| 2026-04-26 16:15 | 47.72979 | 9.69238 | 26771 ft | 433 kts | 268° |
| 2026-04-26 16:15 | 47.72859 | 9.64852 | 26203 ft | 427 kts | 268° |
| 2026-04-26 16:15 | 47.72736 | 9.60463 | 25616 ft | 422 kts | 268° |
| 2026-04-26 16:16 | 47.72493 | 9.51938 | 24459 ft | 412 kts | 268° |
| 2026-04-26 16:16 | 47.72248 | 9.47716 | 23873 ft | 408 kts | 261° |
| 2026-04-26 16:16 | 47.71539 | 9.43703 | 23315 ft | 404 kts | 251° |
| 2026-04-26 16:16 | 47.70372 | 9.39967 | 22754 ft | 401 kts | 242° |
| 2026-04-26 16:17 | 47.68782 | 9.36560 | 22179 ft | 399 kts | 234° |
| 2026-04-26 16:17 | 47.67066 | 9.33381 | 21612 ft | 395 kts | 233° |
| 2026-04-26 16:17 | 47.65356 | 9.30250 | 21049 ft | 392 kts | 233° |
| 2026-04-26 16:17 | 47.63637 | 9.27112 | 20481 ft | 389 kts | 233° |
| 2026-04-26 16:18 | 47.61948 | 9.24035 | 19909 ft | 386 kts | 233° |
| 2026-04-26 16:18 | 47.59304 | 9.17363 | 18783 ft | 376 kts | 252° |
| 2026-04-26 16:19 | 47.58144 | 9.09813 | 17655 ft | 383 kts | 261° |
| 2026-04-26 16:19 | 47.57879 | 9.05908 | 17072 ft | 381 kts | 271° |
| 2026-04-26 16:19 | 47.58570 | 8.99594 | 16098 ft | 375 kts | 289° |
| 2026-04-26 16:20 | 47.59824 | 8.94814 | 15344 ft | 370 kts | 292° |
| 2026-04-26 16:20 | 47.61740 | 8.87792 | 14176 ft | 367 kts | 292° |
| 2026-04-26 16:20 | 47.62492 | 8.84236 | 13609 ft | 364 kts | 281° |
| 2026-04-26 16:21 | 47.62638 | 8.80456 | 13026 ft | 362 kts | 266° |
| 2026-04-26 16:21 | 47.62142 | 8.76823 | 12446 ft | 360 kts | 253° |
| 2026-04-26 16:21 | 47.61314 | 8.73329 | 11838 ft | 359 kts | 250° |
| 2026-04-26 16:21 | 47.60421 | 8.69890 | 11206 ft | 355 kts | 250° |
| 2026-04-26 16:22 | 47.59824 | 8.66446 | 10938 ft | 337 kts | 266° |
| 2026-04-26 16:22 | 47.59819 | 8.63091 | 10904 ft | 322 kts | 272° |
| 2026-04-26 16:22 | 47.60115 | 8.59854 | 10778 ft | 316 kts | 288° |
| 2026-04-26 16:22 | 47.61088 | 8.57018 | 10600 ft | 304 kts | 305° |
| 2026-04-26 16:23 | 47.62379 | 8.54655 | 10456 ft | 286 kts | 313° |
| 2026-04-26 16:23 | 47.63739 | 8.52576 | 10344 ft | 273 kts | 315° |
| 2026-04-26 16:23 | 47.65065 | 8.50694 | 10147 ft | 264 kts | 317° |
| 2026-04-26 16:23 | 47.66404 | 8.48842 | 9780 ft | 261 kts | 317° |
| 2026-04-26 16:24 | 47.67730 | 8.47019 | 9456 ft | 259 kts | 317° |
| 2026-04-26 16:24 | 47.69059 | 8.45194 | 9097 ft | 260 kts | 317° |
| 2026-04-26 16:24 | 47.70391 | 8.43364 | 8708 ft | 263 kts | 317° |
| 2026-04-26 16:24 | 47.71737 | 8.41513 | 8295 ft | 267 kts | 317° |
| 2026-04-26 16:25 | 47.73054 | 8.39582 | 7928 ft | 263 kts | 308° |
| 2026-04-26 16:25 | 47.73780 | 8.37165 | 7588 ft | 257 kts | 281° |
| 2026-04-26 16:25 | 47.73683 | 8.34553 | 7267 ft | 252 kts | 253° |
| 2026-04-26 16:25 | 47.72871 | 8.32284 | 6963 ft | 246 kts | 234° |
| 2026-04-26 16:26 | 47.71809 | 8.30306 | 6666 ft | 242 kts | 229° |
| 2026-04-26 16:26 | 47.70634 | 8.28597 | 6383 ft | 239 kts | 213° |
| 2026-04-26 16:26 | 47.69091 | 8.27705 | 6085 ft | 235 kts | 186° |
| 2026-04-26 16:26 | 47.67552 | 8.27768 | 6009 ft | 216 kts | 162° |
| 2026-04-26 16:27 | 47.66280 | 8.28883 | 5881 ft | 213 kts | 139° |
| 2026-04-26 16:27 | 47.65173 | 8.30341 | 5547 ft | 210 kts | 135° |
| 2026-04-26 16:27 | 47.64117 | 8.31806 | 5302 ft | 204 kts | 134° |
| 2026-04-26 16:27 | 47.63090 | 8.33238 | 5112 ft | 205 kts | 134° |
| 2026-04-26 16:28 | 47.62046 | 8.34688 | 4923 ft | 204 kts | 134° |
| 2026-04-26 16:28 | 47.61000 | 8.36132 | 4669 ft | 205 kts | 134° |
| 2026-04-26 16:28 | 47.59967 | 8.37552 | 4415 ft | 199 kts | 134° |
| 2026-04-26 16:28 | 47.58975 | 8.38912 | 4165 ft | 195 kts | 134° |
| 2026-04-26 16:29 | 47.57989 | 8.40264 | 3922 ft | 192 kts | 134° |
| 2026-04-26 16:29 | 47.57004 | 8.41612 | 3677 ft | 189 kts | 134° |
| 2026-04-26 16:29 | 47.56085 | 8.42867 | 3449 ft | 175 kts | 134° |
| 2026-04-26 16:29 | 47.55219 | 8.44053 | 3236 ft | 166 kts | 133° |
| 2026-04-26 16:30 | 47.54402 | 8.45171 | 3052 ft | 153 kts | 133° |
| 2026-04-26 16:30 | 47.53636 | 8.46217 | 2894 ft | 148 kts | 133° |
| 2026-04-26 16:30 | 47.52880 | 8.47249 | 2692 ft | 145 kts | 134° |
| 2026-04-26 16:30 | 47.52146 | 8.48237 | 2495 ft | 142 kts | 135° |
| 2026-04-26 16:31 | 47.51423 | 8.49217 | 2271 ft | 143 kts | 135° |
| 2026-04-26 16:31 | 47.50701 | 8.50197 | 2126 ft | 136 kts | 135° |
| 2026-04-26 16:31 | 47.49987 | 8.51150 | 1848 ft | 140 kts | 135° |
| 2026-04-26 16:31 | 47.49296 | 8.52134 | 1695 ft | 136 kts | 136° |
| 2026-04-26 16:32 | 47.48600 | 8.53068 | 1521 ft | 136 kts | 136° |
| 2026-04-26 16:32 | 47.48144 | 8.53692 | 1423 ft | 133 kts | 137° |
| 2026-04-26 16:32 | 47.47362 | 8.54767 | 1390 ft | 94 kts | 136° |
| 2026-04-26 16:32 | 47.46952 | 8.55331 | 1392 ft | 68 kts | 137° |
| 2026-04-26 16:33 | 47.46721 | 8.55613 | 1392 ft | 32 kts | 149° |
| 2026-04-26 16:33 | 47.46582 | 8.55683 | 1391 ft | 18 kts | 166° |
| 2026-04-26 16:33 | 47.46460 | 8.55726 | 1391 ft | 10 kts | 167° |
| 2026-04-26 16:33 | 47.46394 | 8.55750 | 1392 ft | 9 kts | 159° |
| 2026-04-26 16:34 | 47.46340 | 8.55806 | 1392 ft | 9 kts | 137° |
| 2026-04-26 16:34 | 47.46292 | 8.55875 | 1392 ft | 9 kts | 136° |
| 2026-04-26 16:34 | 47.46264 | 8.55908 | 1392 ft | 2 kts | 151° |
| 2026-04-26 16:34 | 47.46249 | 8.55913 | 1392 ft | 1 kts | 193° |
| 2026-04-26 16:35 | 47.46237 | 8.55896 | 1392 ft | 6 kts | 238° |
| 2026-04-26 16:35 | 47.46232 | 8.55775 | 1392 ft | 14 kts | 274° |
| 2026-04-26 16:35 | 47.46240 | 8.55665 | 1392 ft | 10 kts | 275° |
| 2026-04-26 16:35 | 47.46247 | 8.55560 | 1392 ft | 10 kts | 277° |
| 2026-04-26 16:36 | 47.46256 | 8.55456 | 1392 ft | 8 kts | 277° |
| 2026-04-26 16:36 | 47.46252 | 8.55428 | 1392 ft | 2 kts | 231° |
| 2026-04-26 16:36 | 47.46235 | 8.55410 | 1392 ft | 3 kts | 207° |
| 2026-04-26 16:36 | 47.46212 | 8.55400 | 1392 ft | 3 kts | 188° |
| 2026-04-26 16:37 | 47.46201 | 8.55398 | 1392 ft | 1 kts | 186° |
| 2026-04-26 16:37 | 47.46193 | 8.55397 | 1392 ft | 0 kts | 186° |